createdAt,value
2023-03-05T00:01:19.510Z,58.52
2023-03-05T00:03:46.678Z,58.50
2023-03-05T00:06:13.290Z,58.10
2023-03-05T00:08:40.237Z,58.11
2023-03-05T00:11:09.802Z,58.39
2023-03-05T00:13:36.893Z,58.63
2023-03-05T00:16:05.606Z,58.64
2023-03-05T00:18:32.142Z,58.66
2023-03-05T00:20:59.014Z,58.29
2023-03-05T00:23:25.851Z,58.41
2023-03-05T00:25:52.501Z,58.51
2023-03-05T00:28:19.537Z,58.67
2023-03-05T00:30:46.306Z,58.48
2023-03-05T00:33:13.539Z,58.91
2023-03-05T00:35:41.943Z,58.83
2023-03-05T00:38:08.916Z,58.43
2023-03-05T00:40:38.154Z,58.65
2023-03-05T00:43:05.492Z,58.29
2023-03-05T00:45:32.462Z,58.62
2023-03-05T00:47:59.003Z,58.63
2023-03-05T00:50:26.242Z,58.00
2023-03-05T00:52:53.131Z,57.84
2023-03-05T00:55:19.797Z,58.00
2023-03-05T00:57:46.455Z,58.07
2023-03-05T01:00:15.528Z,57.91
2023-03-05T01:02:42.316Z,57.90
2023-03-05T01:05:12.769Z,57.65
2023-03-05T01:07:40.218Z,58.30
2023-03-05T01:10:08.364Z,57.98
2023-03-05T01:12:35.347Z,57.85
2023-03-05T01:15:02.386Z,58.08
2023-03-05T01:17:28.996Z,58.09
2023-03-05T01:19:55.558Z,58.29
2023-03-05T01:22:22.420Z,57.78
2023-03-05T01:24:51.756Z,58.16
2023-03-05T01:27:18.245Z,58.29
2023-03-05T01:29:44.809Z,58.54
2023-03-05T01:32:11.484Z,58.68
2023-03-05T01:34:38.008Z,58.73
2023-03-05T01:37:04.817Z,58.82
2023-03-05T01:39:31.338Z,58.40
2023-03-05T01:41:57.987Z,58.29
2023-03-05T01:44:27.392Z,58.54
2023-03-05T01:46:54.112Z,58.29
2023-03-05T01:49:33.866Z,58.00
2023-03-05T01:52:03.396Z,57.35
2023-03-05T01:54:35.238Z,57.47
2023-03-05T01:57:07.716Z,58.00
2023-03-05T01:59:34.702Z,57.31
2023-03-05T02:02:01.649Z,57.89
2023-03-05T02:04:36.328Z,58.07
2023-03-05T02:07:03.285Z,57.85
2023-03-05T02:09:29.912Z,58.20
2023-03-05T02:11:57.318Z,58.26
2023-03-05T02:14:24.678Z,58.01
2023-03-05T02:16:51.607Z,57.25
2023-03-05T02:19:18.275Z,57.36
2023-03-05T02:21:47.270Z,57.31
2023-03-05T02:24:16.334Z,57.47
2023-03-05T02:26:45.049Z,57.37
2023-03-05T02:29:17.685Z,57.31
2023-03-05T02:31:44.332Z,57.12
2023-03-05T02:34:10.928Z,57.13
2023-03-05T02:36:37.450Z,57.33
2023-03-05T02:39:04.672Z,57.54
2023-03-05T02:41:31.144Z,57.32
2023-03-05T02:43:57.642Z,58.08
2023-03-05T02:46:24.192Z,58.81
2023-03-05T02:48:50.696Z,58.85
2023-03-05T02:51:17.543Z,59.52
2023-03-05T02:53:44.226Z,59.75
2023-03-05T02:56:10.985Z,59.58
2023-03-05T02:58:37.478Z,59.77
2023-03-05T03:01:04.375Z,59.55
2023-03-05T03:03:31.030Z,59.78
2023-03-05T03:05:57.582Z,59.68
2023-03-05T03:08:24.162Z,59.26
2023-03-05T03:10:50.729Z,59.92
2023-03-05T03:13:17.359Z,59.24
2023-03-05T03:15:43.966Z,59.08
2023-03-05T03:18:10.521Z,59.14
2023-03-05T03:20:39.240Z,58.75
2023-03-05T03:23:06.738Z,58.58
2023-03-05T03:25:33.572Z,59.00
2023-03-05T03:28:00.143Z,58.03
2023-03-05T03:30:26.675Z,57.15
2023-03-05T03:32:53.813Z,56.46
2023-03-05T03:35:20.438Z,55.69
2023-03-05T03:37:47.667Z,54.50
2023-03-05T03:40:14.268Z,53.57
2023-03-05T03:42:40.821Z,53.38
2023-03-05T03:45:08.082Z,53.83
2023-03-05T03:47:34.698Z,54.30
2023-03-05T03:50:01.383Z,53.58
2023-03-05T03:52:28.041Z,53.59
2023-03-05T03:55:01.345Z,53.56
2023-03-05T03:57:29.490Z,53.99
2023-03-05T03:59:56.040Z,53.61
2023-03-05T04:02:23.094Z,54.28
2023-03-05T04:04:49.756Z,54.10
2023-03-05T04:07:16.277Z,54.59
2023-03-05T04:09:42.882Z,55.24
2023-03-05T04:12:09.732Z,54.96
2023-03-05T04:14:37.037Z,54.69
2023-03-05T04:17:03.644Z,54.46
2023-03-05T04:19:34.126Z,54.70
2023-03-05T04:22:00.746Z,54.32
2023-03-05T04:24:27.291Z,54.56
2023-03-05T04:26:54.079Z,55.35
2023-03-05T04:29:20.600Z,55.23
2023-03-05T04:31:47.136Z,55.52
2023-03-05T04:34:13.671Z,54.94
2023-03-05T04:36:40.350Z,55.33
2023-03-05T04:39:06.870Z,55.45
2023-03-05T04:41:33.364Z,55.47
2023-03-05T04:43:59.880Z,54.92
2023-03-05T04:46:26.484Z,53.24
2023-03-05T04:48:53.856Z,53.18
2023-03-05T04:51:20.426Z,53.70
2023-03-05T04:53:46.949Z,54.00
2023-03-05T04:56:13.512Z,54.68
2023-03-05T04:58:40.083Z,55.21
2023-03-05T05:01:07.572Z,55.72
2023-03-05T05:03:34.523Z,55.57
2023-03-05T05:06:04.440Z,55.91
2023-03-05T05:08:31.261Z,56.59
2023-03-05T05:11:04.423Z,56.53
2023-03-05T05:13:31.979Z,56.77
2023-03-05T05:15:58.928Z,57.60
2023-03-05T05:18:26.070Z,58.07
2023-03-05T05:20:52.788Z,57.49
2023-03-05T05:23:19.438Z,57.49
2023-03-05T05:25:46.057Z,58.31
2023-03-05T05:28:12.902Z,59.20
2023-03-05T05:30:39.462Z,60.05
2023-03-05T05:33:06.019Z,60.31
2023-03-05T05:35:32.616Z,60.85
2023-03-05T05:37:59.205Z,60.85
2023-03-05T05:40:25.733Z,61.00
2023-03-05T05:42:52.320Z,61.20
2023-03-05T05:45:19.073Z,60.87
2023-03-05T05:47:45.655Z,61.30
2023-03-05T05:50:12.673Z,60.63
2023-03-05T05:52:39.208Z,61.18
2023-03-05T05:55:06.491Z,60.34
2023-03-05T05:57:34.507Z,59.08
2023-03-05T06:00:01.500Z,59.49
2023-03-05T06:02:28.166Z,59.78
2023-03-05T06:04:56.652Z,59.15
2023-03-05T06:07:24.367Z,58.79
2023-03-05T06:09:50.969Z,59.33
2023-03-05T06:12:19.902Z,59.99
2023-03-05T06:14:46.425Z,60.06
2023-03-05T06:17:16.941Z,59.91
2023-03-05T06:19:48.510Z,59.65
2023-03-05T06:22:17.647Z,59.93
2023-03-05T06:24:44.203Z,59.81
2023-03-05T06:27:10.730Z,59.26
2023-03-05T06:29:37.217Z,58.60
2023-03-05T06:32:04.599Z,57.43
2023-03-05T06:34:31.124Z,56.55
2023-03-05T06:36:57.701Z,57.57
2023-03-05T06:39:24.222Z,57.41
2023-03-05T06:41:52.220Z,57.74
2023-03-05T06:44:18.729Z,57.90
2023-03-05T06:46:45.317Z,57.29
2023-03-05T06:49:11.995Z,56.23
2023-03-05T06:51:39.931Z,56.41
2023-03-05T06:54:09.630Z,56.29
2023-03-05T06:56:38.644Z,55.17
2023-03-05T06:59:06.224Z,55.84
2023-03-05T07:01:33.239Z,55.80
2023-03-05T07:04:00.764Z,56.95
2023-03-05T07:06:30.477Z,57.19
2023-03-05T07:08:58.516Z,57.64
2023-03-05T07:11:25.752Z,56.66
2023-03-05T07:13:52.426Z,56.54
2023-03-05T07:16:25.146Z,57.03
2023-03-05T07:18:52.396Z,56.83
2023-03-05T07:21:22.285Z,57.08
2023-03-05T07:23:49.371Z,57.26
2023-03-05T07:26:16.699Z,57.70
2023-03-05T07:28:43.350Z,57.81
2023-03-05T07:31:15.685Z,58.25
2023-03-05T07:33:42.337Z,58.11
2023-03-05T07:36:10.461Z,56.21
2023-03-05T07:38:37.012Z,55.75
2023-03-05T07:41:04.815Z,54.38
2023-03-05T07:43:31.419Z,53.88
2023-03-05T07:46:04.894Z,54.61
2023-03-05T07:48:31.524Z,53.71
2023-03-05T07:51:02.480Z,53.73
2023-03-05T07:53:29.077Z,53.09
2023-03-05T07:55:55.658Z,53.09
2023-03-05T07:58:22.297Z,53.49
2023-03-05T08:00:49.343Z,54.10
2023-03-05T08:03:15.961Z,54.38
2023-03-05T08:05:43.005Z,55.15
2023-03-05T08:08:09.879Z,55.01
2023-03-05T08:10:37.055Z,54.14
2023-03-05T08:13:04.149Z,54.59
2023-03-05T08:15:31.790Z,54.87
2023-03-05T08:17:59.428Z,55.42
2023-03-05T08:20:26.083Z,56.30
2023-03-05T08:22:52.668Z,54.60
2023-03-05T08:25:19.402Z,54.77
2023-03-05T08:27:47.170Z,55.15
2023-03-05T08:30:21.757Z,55.00
2023-03-05T08:32:51.848Z,55.70
2023-03-05T08:35:18.460Z,55.43
2023-03-05T08:37:45.001Z,55.70
2023-03-05T08:40:12.099Z,55.37
2023-03-05T08:42:38.665Z,55.25
2023-03-05T08:45:05.676Z,55.62
2023-03-05T08:47:32.159Z,55.75
2023-03-05T08:49:58.756Z,57.12
2023-03-05T08:52:27.349Z,57.21
2023-03-05T08:54:54.148Z,57.33
2023-03-05T08:57:20.836Z,58.13
2023-03-05T08:59:47.536Z,57.02
2023-03-05T09:02:14.294Z,56.98
2023-03-05T09:04:41.255Z,57.74
2023-03-05T09:07:08.017Z,57.50
2023-03-05T09:09:34.895Z,58.15
2023-03-05T09:12:02.280Z,59.03
2023-03-05T09:14:32.333Z,59.43
2023-03-05T09:16:58.878Z,59.55
2023-03-05T09:19:25.743Z,59.49
2023-03-05T09:21:52.277Z,60.09
2023-03-05T09:24:18.792Z,58.42
2023-03-05T09:26:45.402Z,58.22
2023-03-05T09:29:14.298Z,57.70
2023-03-05T09:31:40.919Z,57.52
2023-03-05T09:34:08.327Z,58.40
2023-03-05T09:36:35.530Z,57.98
2023-03-05T09:39:02.307Z,59.47
2023-03-05T09:41:38.751Z,59.81
2023-03-05T09:44:18.057Z,59.47
2023-03-05T09:47:13.302Z,60.39
2023-03-05T09:50:00.119Z,61.02
2023-03-05T09:52:50.504Z,60.27
2023-03-05T09:55:35.091Z,60.51
2023-03-05T09:58:11.561Z,60.97
2023-03-05T10:00:48.159Z,61.29
2023-03-05T10:03:43.826Z,61.23
2023-03-05T10:06:15.344Z,60.90
2023-03-05T10:08:53.846Z,60.67
2023-03-05T10:11:54.594Z,60.41
2023-03-05T10:14:26.623Z,60.57
2023-03-05T10:17:17.166Z,59.76
2023-03-05T10:20:17.711Z,59.75
2023-03-05T10:23:10.681Z,59.12
2023-03-05T10:26:00.091Z,58.82
2023-03-05T10:28:54.713Z,59.23
2023-03-05T10:32:06.584Z,58.74
2023-03-05T10:35:06.826Z,57.62
2023-03-05T10:37:55.943Z,56.87
2023-03-05T10:40:34.783Z,56.53
2023-03-05T10:43:19.991Z,56.85
2023-03-05T10:45:49.783Z,57.14
2023-03-05T10:48:22.429Z,57.32
2023-03-05T10:50:53.624Z,58.14
2023-03-05T10:53:31.087Z,56.99
2023-03-05T10:56:03.857Z,57.62
2023-03-05T10:58:30.695Z,54.63
2023-03-05T11:01:04.905Z,54.96
2023-03-05T11:03:50.940Z,53.55
2023-03-05T11:06:30.585Z,53.23
2023-03-05T11:09:29.242Z,51.70
2023-03-05T11:12:11.653Z,51.18
2023-03-05T11:15:27.804Z,51.12
2023-03-05T11:18:18.689Z,50.89
2023-03-05T11:20:45.985Z,51.18
2023-03-05T11:23:19.923Z,50.49
2023-03-05T11:25:54.214Z,51.06
2023-03-05T11:28:32.846Z,50.63
2023-03-05T11:31:23.605Z,49.96
2023-03-05T11:34:05.236Z,48.97
2023-03-05T11:36:31.739Z,48.87
2023-03-05T11:39:07.783Z,49.11
2023-03-05T11:41:40.367Z,48.71
2023-03-05T11:44:13.777Z,48.60
2023-03-05T11:46:44.837Z,48.31
2023-03-05T11:49:16.820Z,47.98
2023-03-05T11:51:46.120Z,49.38
2023-03-05T11:54:20.430Z,48.55
2023-03-05T11:56:47.284Z,46.89
2023-03-05T11:59:19.143Z,46.70
2023-03-05T12:01:50.300Z,46.36
2023-03-05T12:04:18.246Z,46.16
2023-03-05T12:06:57.948Z,45.49
2023-03-05T12:09:29.098Z,44.60
2023-03-05T12:12:14.176Z,44.58
2023-03-05T12:15:12.456Z,44.05
2023-03-05T12:18:07.415Z,43.89
2023-03-05T12:20:38.895Z,43.86
2023-03-05T12:23:05.567Z,44.17
2023-03-05T12:25:35.516Z,44.09
2023-03-05T12:28:03.083Z,43.48
2023-03-05T12:30:35.565Z,43.66
2023-03-05T12:33:04.598Z,43.46
2023-03-05T12:35:39.606Z,43.90
2023-03-05T12:38:26.875Z,43.87
2023-03-05T12:40:53.842Z,44.42
2023-03-05T12:43:31.854Z,44.07
2023-03-05T12:46:25.073Z,44.40
2023-03-05T12:48:52.556Z,44.01
2023-03-05T12:51:40.925Z,43.23
2023-03-05T12:54:41.980Z,42.70
2023-03-05T12:57:21.859Z,42.90
2023-03-05T12:59:53.591Z,43.14
2023-03-05T13:02:36.043Z,43.53
2023-03-05T13:05:20.920Z,42.71
2023-03-05T13:07:48.713Z,42.96
2023-03-05T13:10:26.897Z,42.68
2023-03-05T13:12:56.746Z,43.49
2023-03-05T13:15:25.654Z,43.72
2023-03-05T13:17:56.754Z,45.89
2023-03-05T13:20:31.318Z,43.63
2023-03-05T13:23:18.759Z,43.45
2023-03-05T13:25:55.760Z,41.81
2023-03-05T13:28:22.284Z,42.24
2023-03-05T13:31:04.008Z,41.96
2023-03-05T13:33:33.927Z,42.17
2023-03-05T13:36:02.592Z,42.70
2023-03-05T13:38:43.629Z,41.95
2023-03-05T13:41:16.271Z,41.71
2023-03-05T13:43:46.029Z,41.80
2023-03-05T13:46:14.134Z,41.25
2023-03-05T13:48:40.785Z,41.51
2023-03-05T13:51:09.623Z,41.68
2023-03-05T13:53:36.952Z,42.39
2023-03-05T13:56:07.602Z,41.94
2023-03-05T13:58:49.561Z,42.25
2023-03-05T14:01:17.132Z,42.15
2023-03-05T14:03:46.358Z,42.22
2023-03-05T14:06:19.451Z,41.56
2023-03-05T14:08:51.247Z,41.66
2023-03-05T14:11:19.533Z,41.32
2023-03-05T14:13:48.901Z,42.10
2023-03-05T14:16:42.245Z,41.52
2023-03-05T14:19:32.879Z,41.02
2023-03-05T14:21:59.593Z,41.38
2023-03-05T14:24:31.293Z,41.41
2023-03-05T14:27:07.895Z,41.33
2023-03-05T14:29:34.947Z,41.37
2023-03-05T14:32:30.837Z,40.61
2023-03-05T14:34:59.751Z,40.55
2023-03-05T14:37:35.567Z,40.64
2023-03-05T14:40:08.276Z,41.03
2023-03-05T14:42:51.343Z,40.63
2023-03-05T14:45:23.530Z,41.19
2023-03-05T14:47:51.939Z,41.00
2023-03-05T14:50:33.876Z,41.00
2023-03-05T14:53:04.266Z,41.16
2023-03-05T14:55:32.375Z,40.13
2023-03-05T14:58:22.897Z,40.31
2023-03-05T15:00:51.244Z,40.20
2023-03-05T15:03:19.254Z,40.05
2023-03-05T15:05:48.942Z,41.35
2023-03-05T15:08:22.577Z,40.65
2023-03-05T15:10:49.888Z,41.00
2023-03-05T15:13:17.015Z,39.48
2023-03-05T15:15:45.135Z,39.86
2023-03-05T15:18:19.447Z,40.17
2023-03-05T15:20:48.768Z,39.51
2023-03-05T15:23:17.174Z,39.48
2023-03-05T15:25:43.704Z,39.59
2023-03-05T15:28:10.308Z,39.41
2023-03-05T15:30:43.663Z,39.34
2023-03-05T15:33:13.574Z,39.61
2023-03-05T15:35:40.794Z,40.12
2023-03-05T15:38:08.012Z,40.51
2023-03-05T15:40:34.658Z,40.24
2023-03-05T15:43:01.677Z,39.99
2023-03-05T15:45:31.331Z,40.27
2023-03-05T15:47:58.451Z,40.01
2023-03-05T15:50:25.056Z,40.05
2023-03-05T15:52:52.013Z,39.98
2023-03-05T15:55:19.124Z,39.89
2023-03-05T15:57:48.867Z,40.12
2023-03-05T16:00:18.226Z,40.37
2023-03-05T16:02:44.838Z,41.16
2023-03-05T16:05:11.548Z,40.71
2023-03-05T16:07:42.301Z,40.26
2023-03-05T16:10:13.723Z,39.98
2023-03-05T16:12:43.029Z,40.13
2023-03-05T16:15:16.474Z,40.36
2023-03-05T16:17:45.572Z,40.08
2023-03-05T16:20:13.244Z,40.15
2023-03-05T16:22:40.145Z,40.76
2023-03-05T16:25:07.437Z,40.26
2023-03-05T16:27:34.427Z,40.34
2023-03-05T16:30:00.987Z,40.79
2023-03-05T16:32:27.684Z,40.65
2023-03-05T16:34:54.308Z,40.59
2023-03-05T16:37:23.606Z,40.43
2023-03-05T16:39:50.237Z,40.95
2023-03-05T16:42:17.951Z,41.60
2023-03-05T16:44:45.324Z,42.11
2023-03-05T16:47:12.325Z,41.71
2023-03-05T16:49:39.889Z,42.71
2023-03-05T16:52:18.239Z,43.73
2023-03-05T16:54:46.933Z,44.36
2023-03-05T16:57:13.855Z,43.00
2023-03-05T16:59:40.550Z,42.43
2023-03-05T17:02:10.084Z,43.67
2023-03-05T17:04:37.240Z,42.85
2023-03-05T17:07:05.530Z,42.34
2023-03-05T17:09:32.133Z,42.44
2023-03-05T17:11:58.883Z,42.66
2023-03-05T17:14:25.561Z,42.86
2023-03-05T17:16:52.087Z,42.68
2023-03-05T17:19:18.886Z,42.69
2023-03-05T17:21:45.708Z,43.04
2023-03-05T17:24:12.168Z,42.51
2023-03-05T17:26:38.882Z,43.59
2023-03-05T17:29:05.799Z,43.26
2023-03-05T17:31:32.947Z,43.05
2023-03-05T17:33:59.718Z,42.93
2023-03-05T17:36:26.408Z,43.58
2023-03-05T17:38:54.877Z,43.88
2023-03-05T17:41:22.181Z,43.28
2023-03-05T17:43:49.352Z,43.31
2023-03-05T17:46:16.884Z,43.46
2023-03-05T17:48:43.597Z,43.20
2023-03-05T17:51:12.692Z,43.13
2023-03-05T17:53:40.405Z,43.21
2023-03-05T17:56:09.633Z,43.67
2023-03-05T17:58:37.022Z,43.93
2023-03-05T18:01:04.238Z,44.33
2023-03-05T18:03:30.868Z,44.32
2023-03-05T18:05:57.478Z,45.26
2023-03-05T18:08:24.110Z,44.90
2023-03-05T18:10:50.781Z,44.94
2023-03-05T18:13:17.500Z,45.00
2023-03-05T18:15:47.801Z,45.02
2023-03-05T18:18:16.011Z,45.47
2023-03-05T18:20:42.660Z,45.85
2023-03-05T18:23:09.953Z,46.22
2023-03-05T18:25:36.604Z,45.97
2023-03-05T18:28:09.004Z,45.58
2023-03-05T18:30:36.756Z,46.06
2023-03-05T18:33:04.197Z,45.97
2023-03-05T18:35:32.314Z,45.81
2023-03-05T18:37:59.539Z,46.39
2023-03-05T18:40:29.720Z,46.48
2023-03-05T18:42:58.852Z,46.61
2023-03-05T18:45:25.494Z,46.65
2023-03-05T18:47:54.187Z,46.89
2023-03-05T18:50:23.479Z,47.79
2023-03-05T18:52:50.321Z,47.99
2023-03-05T18:55:23.574Z,48.00
2023-03-05T18:57:50.820Z,48.05
2023-03-05T19:00:20.010Z,47.64
2023-03-05T19:02:47.316Z,48.28
2023-03-05T19:05:15.274Z,47.88
2023-03-05T19:07:41.952Z,47.85
2023-03-05T19:10:10.654Z,48.04
2023-03-05T19:13:19.359Z,48.26
2023-03-05T19:15:46.002Z,48.23
2023-03-05T19:18:13.215Z,47.81
2023-03-05T19:20:39.896Z,48.03
2023-03-05T19:23:06.477Z,47.92
2023-03-05T19:25:34.037Z,48.68
2023-03-05T19:28:01.536Z,48.67
2023-03-05T19:30:28.054Z,49.00
2023-03-05T19:32:54.586Z,49.45
2023-03-05T19:35:21.251Z,49.62
2023-03-05T19:37:47.864Z,49.37
2023-03-05T19:40:14.920Z,49.17
2023-03-05T19:42:41.550Z,48.56
2023-03-05T19:45:08.855Z,48.37
2023-03-05T19:47:35.656Z,48.24
2023-03-05T19:50:02.723Z,47.33
2023-03-05T19:52:29.287Z,47.16
2023-03-05T19:54:55.886Z,47.40
2023-03-05T19:57:22.486Z,46.45
2023-03-05T19:59:54.262Z,47.17
2023-03-05T20:02:21.882Z,47.70
2023-03-05T20:04:49.541Z,48.04
2023-03-05T20:07:16.827Z,47.95
2023-03-05T20:09:43.429Z,47.63
2023-03-05T20:12:10.440Z,47.96
2023-03-05T20:14:37.173Z,47.73
2023-03-05T20:17:03.882Z,47.58
2023-03-05T20:19:30.529Z,47.83
2023-03-05T20:21:57.092Z,47.46
2023-03-05T20:24:23.612Z,47.57
2023-03-05T20:26:50.167Z,48.15
2023-03-05T20:29:18.155Z,48.01
2023-03-05T20:31:45.197Z,48.66
2023-03-05T20:34:14.796Z,48.83
2023-03-05T20:36:41.475Z,48.56
2023-03-05T20:39:10.079Z,48.76
2023-03-05T20:41:38.610Z,48.64
2023-03-05T20:44:05.979Z,48.54
2023-03-05T20:46:35.526Z,48.24
2023-03-05T20:49:04.001Z,47.81
2023-03-05T20:51:36.398Z,47.75
2023-03-05T20:54:10.085Z,48.01
2023-03-05T20:56:37.542Z,47.86
2023-03-05T20:59:07.509Z,48.31
2023-03-05T21:01:35.876Z,48.25
2023-03-05T21:04:03.189Z,48.06
2023-03-05T21:06:31.765Z,48.10
2023-03-05T21:08:59.332Z,48.06
2023-03-05T21:11:26.383Z,47.89
2023-03-05T21:13:53.313Z,48.11
2023-03-05T21:16:23.364Z,48.15
2023-03-05T21:18:51.384Z,48.67
2023-03-05T21:21:18.697Z,48.69
2023-03-05T21:23:45.725Z,48.71
2023-03-05T21:26:13.496Z,48.73
2023-03-05T21:28:40.717Z,49.01
2023-03-05T21:31:10.700Z,49.66
2023-03-05T21:33:37.598Z,49.07
2023-03-05T21:36:04.597Z,49.08
2023-03-05T21:38:34.065Z,49.34
2023-03-05T21:41:02.465Z,49.66
2023-03-05T21:43:31.353Z,49.88
2023-03-05T21:46:01.051Z,49.73
2023-03-05T21:48:27.797Z,49.16
2023-03-05T21:50:55.494Z,49.63
2023-03-05T21:53:22.196Z,49.00
2023-03-05T21:56:31.014Z,48.77
2023-03-05T21:58:59.982Z,48.32
2023-03-05T22:01:26.593Z,47.93
2023-03-05T22:03:53.959Z,47.89
2023-03-05T22:06:21.976Z,47.33
2023-03-05T22:08:48.683Z,47.28
2023-03-05T22:11:17.297Z,46.92
2023-03-05T22:13:44.294Z,47.43
2023-03-05T22:16:11.363Z,47.28
2023-03-05T22:18:40.446Z,46.67
2023-03-05T22:21:17.094Z,46.46
2023-03-05T22:23:43.650Z,46.88
2023-03-05T22:26:10.207Z,45.77
2023-03-05T22:28:38.907Z,46.15
2023-03-05T22:31:06.069Z,46.65
2023-03-05T22:33:32.792Z,45.91
2023-03-05T22:35:59.507Z,45.89
2023-03-05T22:38:28.357Z,45.58
2023-03-05T22:40:54.902Z,45.75
2023-03-05T22:43:21.795Z,45.97
2023-03-05T22:45:49.145Z,45.91
2023-03-05T22:48:16.193Z,46.05
2023-03-05T22:50:44.278Z,45.58
2023-03-05T22:53:12.113Z,46.52
2023-03-05T22:55:40.990Z,46.44
2023-03-05T22:58:07.699Z,47.39
2023-03-05T23:00:34.364Z,47.30
2023-03-05T23:03:01.148Z,47.65
2023-03-05T23:05:35.357Z,47.64
2023-03-05T23:08:01.874Z,47.52
2023-03-05T23:10:29.348Z,47.51
2023-03-05T23:12:57.787Z,47.09
2023-03-05T23:15:33.428Z,47.83
2023-03-05T23:18:00.335Z,46.72
2023-03-05T23:20:33.197Z,46.87
2023-03-05T23:23:00.176Z,46.77
2023-03-05T23:25:29.470Z,46.38
2023-03-05T23:27:58.129Z,46.77
2023-03-05T23:30:33.747Z,46.71
2023-03-05T23:33:09.469Z,47.21
2023-03-05T23:35:38.611Z,47.98
2023-03-05T23:38:11.768Z,47.62
2023-03-05T23:40:51.802Z,48.51
2023-03-05T23:43:19.034Z,48.50
2023-03-05T23:45:48.201Z,48.32
2023-03-05T23:48:16.491Z,48.27
2023-03-05T23:50:47.579Z,47.97
2023-03-05T23:53:29.287Z,48.13
2023-03-05T23:55:57.400Z,48.24
2023-03-05T23:58:24.290Z,48.31
